Time;durP1;ratioP1;P1;durP2;ratioP2;P2;SDS_P1;SDS_P2;PMS_P1;PMS_P2;Temp;Humidity;BMP_temperature;BMP_pressure;BME280_temperature;BME280_humidity;BME280_pressure;Samples;Min_cycle;Max_cycle;Signal;HPM_P1;HPM_P2
2022/05/26 00:01:04;;;;;;;11.57;7.55;;;27.60;99.90;;;;;;4130895;28;20398;-65
2022/05/26 00:03:11;;;;;;;11.63;7.28;;;27.70;99.90;;;;;;4132725;28;20069;-67
2022/05/26 00:05:20;;;;;;;25.23;7.07;;;27.70;99.90;;;;;;4135131;28;20057;-67
2022/05/26 00:07:25;;;;;;;24.73;7.00;;;27.80;99.90;;;;;;4133530;28;20125;-67
2022/05/26 00:09:30;;;;;;;15.45;7.20;;;27.90;99.90;;;;;;4106180;28;20554;-68
2022/05/26 00:11:39;;;;;;;17.38;7.88;;;27.90;99.90;;;;;;4118282;28;20047;-67
2022/05/26 00:13:43;;;;;;;18.05;6.82;;;27.90;99.90;;;;;;4136585;28;20058;-67
2022/05/26 00:15:49;;;;;;;12.98;6.30;;;27.90;99.90;;;;;;4142066;28;20093;-68
2022/05/26 00:17:58;;;;;;;11.98;6.10;;;28.00;99.90;;;;;;4140573;28;20045;-69
2022/05/26 00:20:04;;;;;;;13.18;6.05;;;28.00;99.90;;;;;;4141308;28;20514;-70
2022/05/26 00:22:09;;;;;;;11.15;6.22;;;28.00;99.90;;;;;;4132439;28;20499;-70
2022/05/26 00:24:19;;;;;;;12.15;6.00;;;28.10;99.90;;;;;;4142767;28;20509;-70
2022/05/26 00:26:25;;;;;;;15.13;5.50;;;28.20;99.90;;;;;;4154182;28;20049;-70
2022/05/26 00:28:31;;;;;;;13.25;5.20;;;28.20;99.90;;;;;;4133079;28;20046;-70
2022/05/26 00:30:39;;;;;;;10.95;5.47;;;28.30;99.90;;;;;;4127961;28;20390;-68
2022/05/26 00:32:44;;;;;;;11.05;5.55;;;28.30;99.90;;;;;;4156689;28;20038;-69
2022/05/26 00:34:48;;;;;;;13.18;5.60;;;28.30;99.90;;;;;;4129899;28;20061;-67
2022/05/26 00:36:55;;;;;;;11.85;5.03;;;28.30;99.90;;;;;;4151218;28;20839;-68
2022/05/26 00:39:00;;;;;;;12.25;5.22;;;28.40;99.90;;;;;;4151162;28;20267;-69
2022/05/26 00:41:10;;;;;;;10.63;4.25;;;28.40;99.90;;;;;;4134383;28;20046;-69
2022/05/26 00:43:21;;;;;;;9.17;4.57;;;28.50;99.90;;;;;;4122874;28;20192;-69
2022/05/26 00:45:30;;;;;;;16.35;5.00;;;28.50;99.90;;;;;;4142462;28;20292;-69
2022/05/26 00:47:39;;;;;;;11.10;4.63;;;28.50;99.90;;;;;;4147766;28;20041;-68
2022/05/26 00:49:59;;;;;;;10.88;5.10;;;28.50;99.90;;;;;;4157986;28;20041;-67
2022/05/26 00:52:04;;;;;;;11.13;4.57;;;28.60;99.90;;;;;;4139293;28;20425;-67
2022/05/26 00:54:12;;;;;;;16.55;5.75;;;28.60;99.90;;;;;;4139105;28;20046;-67
2022/05/26 00:56:27;;;;;;;12.30;4.50;;;28.60;99.90;;;;;;4127781;28;20042;-68
2022/05/26 00:58:31;;;;;;;;;;;28.60;99.90;;;;;;4130518;28;20047;-70
2022/05/26 01:00:37;;;;;;;9.68;4.00;;;28.70;99.90;;;;;;4145334;28;19939;-69
2022/05/26 01:03:09;;;;;;;13.13;4.85;;;28.70;99.90;;;;;;4135577;28;20050;-67
2022/05/26 01:05:21;;;;;;;10.20;4.50;;;28.80;99.90;;;;;;4129227;28;20041;-67
2022/05/26 01:07:30;;;;;;;10.10;4.03;;;28.80;99.90;;;;;;4144915;28;20044;-68
2022/05/26 01:09:38;;;;;;;12.18;4.63;;;28.90;99.90;;;;;;4147024;28;20050;-68
2022/05/26 01:11:44;;;;;;;11.35;4.38;;;28.90;99.90;;;;;;4129970;28;20069;-67
2022/05/26 01:13:52;;;;;;;8.98;4.03;;;29.00;99.90;;;;;;4150838;28;20050;-68
2022/05/26 01:16:17;;;;;;;14.65;4.70;;;29.00;99.90;;;;;;4146163;28;20121;-66
2022/05/26 01:18:37;;;;;;;13.88;4.80;;;29.00;99.90;;;;;;4129555;28;20109;-67
2022/05/26 01:20:47;;;;;;;11.23;4.30;;;29.10;99.90;;;;;;4145820;28;20061;-68
2022/05/26 01:23:18;;;;;;;11.30;3.92;;;29.10;99.90;;;;;;4128270;28;20038;-69
2022/05/26 01:25:43;;;;;;;7.90;3.92;;;29.10;99.90;;;;;;4130872;28;20616;-69
2022/05/26 01:28:04;;;;;;;10.40;4.47;;;29.20;99.90;;;;;;4147944;28;20084;-69
2022/05/26 01:30:23;;;;;;;;;;;29.30;99.90;;;;;;4129722;28;20046;-69
2022/05/26 01:32:52;;;;;;;11.25;4.40;;;29.30;99.90;;;;;;4136660;28;19988;-70
2022/05/26 01:35:23;;;;;;;9.88;4.53;;;29.40;99.90;;;;;;4135191;28;20084;-70
2022/05/26 01:37:40;;;;;;;13.10;4.55;;;29.50;99.90;;;;;;4156531;28;20141;-69
2022/05/26 01:39:52;;;;;;;;;;;29.50;99.90;;;;;;4147478;28;20129;-69
2022/05/26 01:42:00;;;;;;;13.20;4.43;;;29.60;99.90;;;;;;4126540;28;19941;-68
2022/05/26 01:44:19;;;;;;;11.65;4.00;;;29.50;99.90;;;;;;4134256;28;20095;-68
2022/05/26 01:46:29;;;;;;;13.15;4.18;;;29.60;99.90;;;;;;4130412;28;20066;-68
2022/05/26 01:48:43;;;;;;;10.98;4.28;;;29.70;99.90;;;;;;4156806;28;20046;-69
2022/05/26 01:50:57;;;;;;;11.77;3.75;;;29.70;99.90;;;;;;4156002;28;20608;-71
2022/05/26 01:53:20;;;;;;;13.82;4.43;;;29.70;99.90;;;;;;4145996;28;20053;-71
2022/05/26 01:55:30;;;;;;;8.60;4.10;;;29.70;99.90;;;;;;4142796;28;20666;-69
2022/05/26 01:57:57;;;;;;;8.05;3.45;;;29.80;99.90;;;;;;4136351;28;20315;-68
2022/05/26 02:00:05;;;;;;;13.32;4.10;;;29.90;99.90;;;;;;4147091;28;20068;-66
2022/05/26 02:02:25;;;;;;;14.40;4.47;;;30.30;99.90;;;;;;4119659;28;20035;-67
2022/05/26 02:04:42;;;;;;;9.70;3.95;;;30.10;99.90;;;;;;4127440;28;20057;-67
2022/05/26 02:06:53;;;;;;;12.45;4.50;;;30.10;99.90;;;;;;4144023;28;20180;-67
2022/05/26 02:09:10;;;;;;;12.70;4.40;;;30.10;99.90;;;;;;4146441;28;20057;-69
2022/05/26 02:11:20;;;;;;;9.00;3.47;;;30.20;99.90;;;;;;4125809;28;20380;-67
2022/05/26 02:13:27;;;;;;;10.70;3.90;;;30.20;99.90;;;;;;4157855;28;20099;-68
2022/05/26 02:15:38;;;;;;;10.88;4.15;;;30.30;99.90;;;;;;4140500;28;20065;-68
2022/05/26 02:17:52;;;;;;;10.48;4.03;;;30.30;99.90;;;;;;4131768;28;20096;-67
2022/05/26 02:20:24;;;;;;;11.33;4.70;;;30.40;99.90;;;;;;4126865;28;20038;-67
2022/05/26 02:22:43;;;;;;;9.95;3.92;;;30.40;99.90;;;;;;4139561;28;20046;-67
2022/05/26 02:24:53;;;;;;;14.40;4.10;;;30.50;99.90;;;;;;4153965;28;20125;-67
2022/05/26 02:26:58;;;;;;;10.63;4.50;;;30.50;99.90;;;;;;4138373;28;20058;-67
2022/05/26 02:31:26;;;;;;;14.27;4.28;;;30.60;99.90;;;;;;4148090;28;20527;-67
2022/05/26 02:33:31;;;;;;;10.73;4.72;;;30.70;99.90;;;;;;4152492;28;20073;-67
2022/05/26 02:35:45;;;;;;;11.27;4.40;;;30.80;99.90;;;;;;4156616;28;20057;-68
2022/05/26 02:37:59;;;;;;;10.88;4.20;;;30.90;99.90;;;;;;4154610;28;20102;-67
2022/05/26 02:40:07;;;;;;;14.02;4.90;;;30.90;99.90;;;;;;4145658;28;20053;-67
2022/05/26 02:42:12;;;;;;;9.27;3.58;;;31.00;99.90;;;;;;4157837;28;20041;-68
2022/05/26 02:44:17;;;;;;;10.48;5.40;;;31.00;99.90;;;;;;4154852;28;20048;-68
2022/05/26 02:46:23;;;;;;;9.02;4.43;;;31.00;99.90;;;;;;4160197;28;20057;-68
2022/05/26 02:48:34;;;;;;;13.32;5.43;;;31.10;99.90;;;;;;4156653;28;20104;-66
2022/05/26 02:50:45;;;;;;;7.90;3.30;;;31.10;99.90;;;;;;4145234;28;20042;-66
2022/05/26 02:53:06;;;;;;;12.73;3.83;;;31.00;99.90;;;;;;4144893;28;20472;-67
2022/05/26 02:55:31;;;;;;;13.13;4.05;;;31.10;99.90;;;;;;4150340;28;20042;-68
2022/05/26 02:57:40;;;;;;;10.23;3.30;;;31.10;99.90;;;;;;4154581;28;20048;-67
2022/05/26 03:00:00;;;;;;;9.70;3.90;;;31.20;99.90;;;;;;4153384;28;20049;-67
2022/05/26 03:02:20;;;;;;;14.57;5.65;;;31.30;99.90;;;;;;4129560;28;20057;-66
2022/05/26 03:04:41;;;;;;;15.77;6.75;;;31.30;99.90;;;;;;4124365;28;20051;-66
2022/05/26 03:07:00;;;;;;;10.60;4.13;;;31.40;99.80;;;;;;4157068;28;20056;-67
2022/05/26 03:09:06;;;;;;;10.20;3.60;;;31.40;99.60;;;;;;4127911;28;20070;-67
2022/05/26 03:11:19;;;;;;;10.55;3.95;;;31.40;98.50;;;;;;4095261;28;20111;-67
2022/05/26 03:13:24;;;;;;;10.40;3.75;;;31.30;98.50;;;;;;4139895;28;20691;-67
2022/05/26 03:15:30;;;;;;;8.43;3.50;;;31.50;99.10;;;;;;4147189;28;20049;-67
2022/05/26 03:17:36;;;;;;;10.30;3.42;;;31.50;98.70;;;;;;4140459;28;20488;-67
2022/05/26 03:19:41;;;;;;;8.13;3.42;;;31.60;99.50;;;;;;4137597;28;20069;-67
2022/05/26 03:21:46;;;;;;;7.75;3.60;;;31.80;99.30;;;;;;4144218;28;20041;-66
2022/05/26 03:23:53;;;;;;;12.00;4.00;;;31.80;99.60;;;;;;4142142;28;20126;-66
2022/05/26 03:25:58;;;;;;;7.93;3.30;;;31.80;98.70;;;;;;4147292;28;20045;-66
2022/05/26 03:28:04;;;;;;;11.13;3.70;;;31.70;97.90;;;;;;4136212;28;20039;-66
2022/05/26 03:30:13;;;;;;;11.18;3.75;;;31.70;98.80;;;;;;4155525;28;20432;-66
2022/05/26 03:32:19;;;;;;;11.00;3.45;;;31.80;98.60;;;;;;4140355;28;20050;-66
2022/05/26 03:41:25;;;;;;;12.15;4.78;;;32.00;97.80;;;;;;4149107;28;20089;-66
2022/05/26 03:43:34;;;;;;;15.15;3.38;;;32.20;97.70;;;;;;4098620;28;20413;-66
2022/05/26 03:45:39;;;;;;;9.05;3.92;;;32.10;97.30;;;;;;4129437;28;20997;-66
2022/05/26 03:47:44;;;;;;;15.68;4.80;;;32.00;97.80;;;;;;4112164;28;20051;-67
2022/05/26 03:49:54;;;;;;;10.70;4.00;;;32.00;98.00;;;;;;4134451;28;20137;-66
2022/05/26 03:52:01;;;;;;;10.75;3.28;;;32.10;98.40;;;;;;4141704;28;20104;-67
2022/05/26 03:54:07;;;;;;;8.82;3.30;;;32.20;98.50;;;;;;4143780;28;20576;-67
2022/05/26 03:56:16;;;;;;;9.27;3.58;;;32.40;97.80;;;;;;4134467;28;20038;-67
2022/05/26 03:58:27;;;;;;;9.73;3.65;;;32.50;97.90;;;;;;3269451;28;10000973;-66
2022/05/26 04:00:32;;;;;;;10.93;3.92;;;32.40;98.30;;;;;;4158914;28;20108;-67
2022/05/26 04:02:37;;;;;;;11.00;4.00;;;32.30;98.40;;;;;;4157690;28;20085;-67
2022/05/26 04:04:45;;;;;;;9.85;3.63;;;32.30;98.20;;;;;;4113996;28;20852;-67
2022/05/26 04:06:51;;;;;;;7.97;3.33;;;32.20;98.50;;;;;;4116652;28;20107;-67
2022/05/26 04:09:02;;;;;;;8.35;3.15;;;32.30;98.20;;;;;;4129972;28;20085;-65
2022/05/26 04:11:11;;;;;;;9.00;3.65;;;32.40;98.10;;;;;;4067956;28;20059;-66
2022/05/26 04:13:16;;;;;;;8.63;3.33;;;32.30;96.80;;;;;;4130266;28;20046;-67
2022/05/26 04:15:31;;;;;;;9.77;3.40;;;32.40;95.80;;;;;;4143642;28;20049;-68
2022/05/26 04:17:36;;;;;;;12.00;3.38;;;32.50;95.40;;;;;;4145957;28;20052;-67
2022/05/26 04:19:42;;;;;;;8.88;2.67;;;32.60;95.70;;;;;;4130712;28;20409;-67
2022/05/26 04:24:08;;;;;;;9.93;3.20;;;32.70;95.20;;;;;;4145911;28;20049;-67
2022/05/26 04:26:13;;;;;;;8.73;3.28;;;32.70;94.00;;;;;;4113568;28;20045;-67
2022/05/26 04:28:22;;;;;;;14.68;3.25;;;32.80;95.00;;;;;;4113840;28;20051;-67
2022/05/26 04:30:27;;;;;;;9.02;3.40;;;32.90;95.20;;;;;;4146186;28;20504;-68
2022/05/26 04:32:33;;;;;;;10.52;3.50;;;32.80;94.70;;;;;;4144591;28;20050;-68
2022/05/26 04:34:40;;;;;;;7.57;3.03;;;32.90;94.20;;;;;;4143358;28;20488;-68
2022/05/26 04:36:46;;;;;;;8.30;3.08;;;33.00;94.90;;;;;;4168152;28;20122;-68
2022/05/26 04:38:50;;;;;;;7.80;3.10;;;32.90;95.20;;;;;;4160825;28;20045;-68
2022/05/26 04:41:03;;;;;;;11.55;3.13;;;32.80;95.50;;;;;;4161248;28;20041;-69
2022/05/26 04:43:08;;;;;;;10.98;2.92;;;32.90;95.70;;;;;;4150511;28;20100;-68
2022/05/26 04:45:15;;;;;;;11.13;3.60;;;32.80;95.80;;;;;;4160795;28;20052;-68
2022/05/26 04:47:24;;;;;;;11.68;3.67;;;32.90;96.10;;;;;;4159816;28;20046;-68
2022/05/26 04:49:29;;;;;;;17.05;3.40;;;32.80;97.20;;;;;;4161470;28;20098;-68
2022/05/26 04:51:37;;;;;;;8.73;3.17;;;32.80;97.60;;;;;;4129339;28;20054;-67
2022/05/26 04:53:46;;;;;;;11.32;3.65;;;32.80;97.00;;;;;;4159694;28;20045;-67
2022/05/26 04:55:55;;;;;;;10.60;3.55;;;33.00;96.80;;;;;;4164647;28;20053;-67
2022/05/26 04:58:07;;;;;;;8.90;3.30;;;33.20;96.50;;;;;;4161446;28;20050;-68
2022/05/26 05:00:16;;;;;;;9.27;3.58;;;33.10;95.30;;;;;;4159025;28;20037;-68
2022/05/26 05:02:22;;;;;;;12.05;3.65;;;33.00;95.60;;;;;;4175986;28;20680;-69
2022/05/26 05:04:27;;;;;;;8.63;3.50;;;32.90;96.20;;;;;;4158418;28;20045;-68
2022/05/26 05:06:36;;;;;;;6.72;3.20;;;33.00;95.80;;;;;;4143206;28;20053;-68
2022/05/26 05:08:42;;;;;;;9.73;4.00;;;33.30;95.90;;;;;;4156023;28;20420;-68
2022/05/26 05:10:48;;;;;;;8.80;4.18;;;33.50;94.80;;;;;;4152482;28;20083;-68
2022/05/26 05:12:57;;;;;;;16.75;4.43;;;33.70;93.30;;;;;;4128047;28;20757;-68
2022/05/26 05:15:03;;;;;;;9.93;3.88;;;33.80;93.20;;;;;;4176375;28;20045;-68
2022/05/26 05:17:12;;;;;;;8.98;3.42;;;33.90;93.90;;;;;;4176577;28;20041;-68
2022/05/26 05:19:22;;;;;;;8.85;3.85;;;34.00;93.60;;;;;;4156775;28;20061;-67
2022/05/26 05:21:46;;;;;;;9.73;3.78;;;34.10;92.90;;;;;;4129816;28;20050;-68
2022/05/26 05:23:54;;;;;;;10.45;3.55;;;34.20;93.60;;;;;;4159337;28;20527;-67
2022/05/26 05:26:04;;;;;;;14.38;4.32;;;34.20;93.00;;;;;;4170231;28;20045;-68
2022/05/26 05:28:21;;;;;;;13.00;4.10;;;34.20;92.30;;;;;;4108440;28;20077;-68
2022/05/26 05:30:32;;;;;;;9.95;3.60;;;34.20;93.30;;;;;;4159286;28;20559;-69
2022/05/26 05:32:55;;;;;;;9.60;3.90;;;34.30;92.70;;;;;;4159565;28;20443;-69
2022/05/26 05:35:07;;;;;;;8.68;3.75;;;34.50;92.20;;;;;;4142402;28;20124;-68
2022/05/26 05:37:12;;;;;;;11.48;4.03;;;34.50;91.20;;;;;;4169677;28;20140;-69
2022/05/26 05:39:21;;;;;;;12.60;4.13;;;34.40;91.00;;;;;;4156834;28;20096;-68
2022/05/26 05:41:26;;;;;;;10.82;4.18;;;34.00;92.50;;;;;;4161526;28;20049;-67
2022/05/26 05:43:31;;;;;;;10.20;4.00;;;34.00;93.30;;;;;;4139766;28;20132;-67
2022/05/26 05:45:40;;;;;;;9.57;3.88;;;33.90;93.60;;;;;;4160350;28;20049;-68
2022/05/26 05:47:45;;;;;;;9.10;3.70;;;33.80;93.80;;;;;;4160567;28;20041;-68
2022/05/26 05:49:50;;;;;;;9.23;3.50;;;33.80;93.90;;;;;;3273779;28;10000968;-67
2022/05/26 05:52:04;;;;;;;10.00;4.00;;;33.80;94.00;;;;;;3271757;28;10001020;-67
2022/05/26 05:54:08;;;;;;;10.63;3.95;;;33.70;94.10;;;;;;4175313;28;20645;-67
2022/05/26 05:56:14;;;;;;;8.82;3.97;;;33.60;94.00;;;;;;4157823;28;20037;-67
2022/05/26 05:58:19;;;;;;;12.20;4.20;;;33.70;94.10;;;;;;4160080;28;20587;-67
2022/05/26 06:00:24;;;;;;;13.63;5.25;;;33.50;94.30;;;;;;4161240;28;20140;-67
2022/05/26 06:02:32;;;;;;;11.10;4.55;;;33.40;94.20;;;;;;4162474;28;20046;-67
2022/05/26 06:04:42;;;;;;;11.98;4.32;;;33.30;94.70;;;;;;4163406;28;20490;-67
2022/05/26 06:06:47;;;;;;;12.40;3.85;;;33.30;95.30;;;;;;4161221;28;20037;-67
2022/05/26 06:08:51;;;;;;;9.85;3.90;;;33.50;95.60;;;;;;4161910;28;20045;-67
2022/05/26 06:10:58;;;;;;;8.88;3.70;;;33.50;95.70;;;;;;4163158;28;20041;-67
2022/05/26 06:13:05;;;;;;;14.52;5.03;;;33.50;95.80;;;;;;4162994;28;20045;-67
2022/05/26 06:15:10;;;;;;;11.80;3.90;;;33.50;95.90;;;;;;4161802;28;20048;-67
2022/05/26 06:17:19;;;;;;;43.65;12.55;;;33.80;95.60;;;;;;4145921;28;20073;-66
2022/05/26 06:19:23;;;;;;;33.47;12.13;;;33.80;95.20;;;;;;4148628;28;20097;-67
2022/05/26 06:21:30;;;;;;;19.02;6.47;;;33.70;95.60;;;;;;4162129;28;20079;-67
2022/05/26 06:23:39;;;;;;;13.95;6.15;;;34.00;95.10;;;;;;4131843;28;20452;-66
2022/05/26 06:25:45;;;;;;;12.70;4.10;;;34.20;95.20;;;;;;4161083;28;20067;-66
2022/05/26 06:30:12;;;;;;;16.52;3.83;;;34.50;94.70;;;;;;4159223;28;20137;-67
2022/05/26 06:39:17;;;;;;;10.07;3.72;;;34.20;94.80;;;;;;4158400;28;20292;-66
2022/05/26 06:43:48;;;;;;;9.50;3.53;;;34.70;94.50;;;;;;4160408;28;20104;-67
2022/05/26 06:45:54;;;;;;;8.57;3.53;;;34.80;94.60;;;;;;4145596;28;20488;-67
2022/05/26 06:47:59;;;;;;;8.75;3.65;;;35.00;94.10;;;;;;4157431;28;20169;-66
2022/05/26 06:50:08;;;;;;;11.07;3.88;;;35.10;93.60;;;;;;4158565;28;20045;-67
2022/05/26 06:52:22;;;;;;;9.18;3.22;;;35.20;93.80;;;;;;4144285;28;20401;-67
2022/05/26 06:54:31;;;;;;;9.50;4.18;;;35.00;93.80;;;;;;4143018;28;20058;-67
2022/05/26 06:56:40;;;;;;;7.75;3.28;;;34.90;93.50;;;;;;4159753;28;20041;-67
2022/05/26 06:58:46;;;;;;;10.10;3.50;;;35.00;93.60;;;;;;4160257;28;20052;-67
2022/05/26 07:00:50;;;;;;;12.23;3.55;;;35.00;93.30;;;;;;4158735;28;20049;-67
2022/05/26 07:03:00;;;;;;;7.97;3.42;;;34.80;93.60;;;;;;4159176;28;20041;-66
2022/05/26 07:05:07;;;;;;;12.85;3.45;;;34.70;93.80;;;;;;4158886;28;20037;-66
2022/05/26 07:07:15;;;;;;;9.38;3.20;;;34.60;93.70;;;;;;4173276;28;20045;-67
2022/05/26 07:09:25;;;;;;;11.00;3.47;;;34.50;93.50;;;;;;4142669;28;20074;-67
2022/05/26 07:11:32;;;;;;;8.30;3.42;;;34.40;93.70;;;;;;4159815;28;20785;-67
2022/05/26 07:13:39;;;;;;;10.30;3.50;;;34.40;93.30;;;;;;4159862;28;20041;-67
2022/05/26 07:15:47;;;;;;;9.68;3.53;;;34.30;93.70;;;;;;4159317;28;20030;-67
2022/05/26 07:17:52;;;;;;;8.77;3.38;;;34.30;93.60;;;;;;4156880;28;20045;-67
2022/05/26 07:19:56;;;;;;;9.80;3.60;;;34.20;93.70;;;;;;4158328;28;20041;-66
2022/05/26 07:22:08;;;;;;;7.78;3.20;;;34.10;93.50;;;;;;4165226;28;20042;-66
2022/05/26 07:24:15;;;;;;;10.75;3.83;;;34.00;93.70;;;;;;4155519;28;20042;-67
2022/05/26 07:26:21;;;;;;;9.30;3.50;;;33.90;94.60;;;;;;4151261;28;20680;-67
2022/05/26 07:28:32;;;;;;;12.18;3.75;;;33.70;94.50;;;;;;4157365;28;20492;-67
2022/05/26 07:30:37;;;;;;;10.90;3.95;;;33.70;94.70;;;;;;4159182;28;20053;-66
2022/05/26 07:32:42;;;;;;;9.45;3.42;;;33.50;95.40;;;;;;4147813;28;20055;-66
2022/05/26 07:34:51;;;;;;;12.30;4.03;;;33.50;95.50;;;;;;4150415;28;20049;-67
2022/05/26 07:41:37;;;;;;;10.25;3.92;;;33.40;96.30;;;;;;4104533;28;20057;-67
2022/05/26 07:43:42;;;;;;;9.07;3.08;;;33.30;95.60;;;;;;4158768;28;20042;-67
2022/05/26 07:45:49;;;;;;;9.73;3.55;;;33.40;95.50;;;;;;4139969;28;20054;-67
2022/05/26 07:47:57;;;;;;;10.55;3.50;;;33.40;95.10;;;;;;4130999;28;20057;-67
2022/05/26 07:50:02;;;;;;;11.20;4.25;;;33.50;95.20;;;;;;4160531;28;20111;-66
2022/05/26 07:52:08;;;;;;;9.63;3.47;;;33.50;95.40;;;;;;4151865;28;20415;-67
2022/05/26 07:54:15;;;;;;;7.00;3.53;;;33.40;95.00;;;;;;4153883;28;20444;-68
2022/05/26 07:56:20;;;;;;;12.90;3.92;;;33.30;95.50;;;;;;4155758;28;20398;-67
2022/05/26 07:58:25;;;;;;;8.57;3.63;;;33.30;96.00;;;;;;4156926;28;20100;-68
2022/05/26 08:00:33;;;;;;;8.50;3.67;;;33.20;96.00;;;;;;4158346;28;20076;-67
2022/05/26 08:02:39;;;;;;;10.85;4.22;;;33.10;95.90;;;;;;4157575;28;20092;-67
2022/05/26 08:04:46;;;;;;;13.40;4.38;;;33.00;95.00;;;;;;4157948;28;20128;-68
2022/05/26 08:06:55;;;;;;;12.70;3.05;;;32.00;95.10;;;;;;4154851;28;20065;-67
2022/05/26 08:09:00;;;;;;;19.58;2.67;;;30.50;96.90;;;;;;4158855;28;20049;-68
2022/05/26 08:11:06;;;;;;;7.85;1.92;;;30.00;98.70;;;;;;4159719;28;20111;-69
2022/05/26 08:13:15;;;;;;;11.07;2.85;;;26.80;99.90;;;;;;4160768;28;20455;-68
2022/05/26 08:15:22;;;;;;;11.50;3.10;;;25.60;99.90;;;;;;4161240;28;20059;-66
2022/05/26 08:17:34;;;;;;;9.60;2.80;;;25.60;99.90;;;;;;4161860;28;20412;-63
2022/05/26 08:19:43;;;;;;;5.50;2.10;;;25.60;99.90;;;;;;4161992;28;20103;-65
2022/05/26 08:21:49;;;;;;;6.13;1.95;;;24.90;99.90;;;;;;4162233;28;20087;-65
2022/05/26 08:23:54;;;;;;;4.40;1.58;;;24.70;99.90;;;;;;4143619;28;20034;-66
2022/05/26 08:26:03;;;;;;;5.40;1.98;;;24.70;99.90;;;;;;4160554;28;20037;-67
2022/05/26 08:28:10;;;;;;;5.78;1.50;;;25.00;99.90;;;;;;4162069;28;20075;-68
2022/05/26 08:30:18;;;;;;;5.30;1.60;;;25.30;99.90;;;;;;4156356;28;20037;-67
2022/05/26 08:32:25;;;;;;;8.35;2.15;;;25.90;99.90;;;;;;4160687;28;20077;-66
2022/05/26 08:34:31;;;;;;;8.82;2.22;;;26.20;99.90;;;;;;4161665;28;20120;-66
2022/05/26 08:36:35;;;;;;;8.50;2.15;;;27.20;99.90;;;;;;4162081;28;20050;-67
2022/05/26 08:38:44;;;;;;;5.82;1.85;;;27.80;99.90;;;;;;4158864;28;20136;-68
2022/05/26 08:40:50;;;;;;;7.63;1.92;;;28.10;99.90;;;;;;4159987;28;20749;-69
2022/05/26 08:42:55;;;;;;;5.30;1.70;;;28.00;99.90;;;;;;4161984;28;20045;-70
2022/05/26 08:45:10;;;;;;;6.70;1.90;;;28.10;99.90;;;;;;4159216;28;20042;-70
2022/05/26 08:47:20;;;;;;;11.13;1.95;;;28.20;99.90;;;;;;4145784;28;20046;-70
2022/05/26 08:49:33;;;;;;;4.72;1.90;;;28.40;99.90;;;;;;4160532;28;20050;-68
2022/05/26 08:51:44;;;;;;;5.57;1.80;;;28.50;99.90;;;;;;4158344;28;20099;-67
2022/05/26 08:53:48;;;;;;;5.72;1.83;;;28.70;99.90;;;;;;4160030;28;20140;-68
2022/05/26 08:55:54;;;;;;;4.28;1.52;;;28.70;99.90;;;;;;4144528;28;20045;-67
2022/05/26 08:58:13;;;;;;;11.27;1.60;;;28.60;99.90;;;;;;4163798;28;20578;-69
2022/05/26 09:00:19;;;;;;;6.35;1.48;;;28.60;99.90;;;;;;4161119;28;20576;-69
2022/05/26 09:02:33;;;;;;;8.20;1.70;;;28.50;99.90;;;;;;4173586;28;20055;-68
2022/05/26 09:04:42;;;;;;;4.57;1.77;;;28.50;99.90;;;;;;4144919;28;20069;-70
2022/05/26 09:13:45;;;;;;;4.28;1.50;;;28.60;99.90;;;;;;4160297;28;20068;-68
2022/05/26 09:15:53;;;;;;;3.42;1.50;;;28.70;99.90;;;;;;4158384;28;20073;-68
2022/05/26 09:18:13;;;;;;;4.75;1.92;;;28.70;99.90;;;;;;4153763;28;20505;-68
2022/05/26 09:20:36;;;;;;;5.70;1.75;;;28.70;99.90;;;;;;4175017;28;20525;-67
2022/05/26 09:22:45;;;;;;;8.38;5.60;;;28.70;99.90;;;;;;4160356;28;20397;-67
2022/05/26 09:24:53;;;;;;;7.10;3.95;;;28.60;99.90;;;;;;4148521;28;20042;-70
2022/05/26 09:27:23;;;;;;;4.88;2.90;;;28.70;99.90;;;;;;4157522;28;20041;-68
2022/05/26 09:29:30;;;;;;;7.18;2.47;;;28.70;99.90;;;;;;4158054;28;20104;-68
2022/05/26 09:31:43;;;;;;;9.70;2.60;;;28.60;99.90;;;;;;4166856;28;20047;-69
2022/05/26 09:34:24;;;;;;;5.72;2.55;;;28.60;99.90;;;;;;4158897;28;20099;-68
2022/05/26 09:36:40;;;;;;;6.28;2.63;;;28.60;99.90;;;;;;4185095;28;20107;-70
2022/05/26 09:38:47;;;;;;;9.68;3.20;;;28.60;99.90;;;;;;4159561;28;20590;-69
2022/05/26 09:40:53;;;;;;;9.35;3.25;;;28.70;99.90;;;;;;4157210;28;20466;-67
2022/05/26 09:43:17;;;;;;;9.73;3.50;;;28.70;99.90;;;;;;4158956;28;20057;-69
2022/05/26 09:45:34;;;;;;;6.93;3.17;;;28.60;99.90;;;;;;4148533;28;20041;-69
2022/05/26 09:47:59;;;;;;;9.55;3.97;;;28.50;99.90;;;;;;4143132;28;20536;-69
2022/05/26 09:50:11;;;;;;;13.52;4.30;;;28.50;99.90;;;;;;4143925;28;20501;-68
2022/05/26 09:52:23;;;;;;;10.50;4.07;;;28.60;99.90;;;;;;4157228;28;20475;-68
2022/05/26 09:54:30;;;;;;;13.60;7.90;;;28.60;99.90;;;;;;4159410;28;20100;-68
2022/05/26 09:56:41;;;;;;;10.88;7.70;;;28.60;99.90;;;;;;4127873;28;20046;-68
2022/05/26 09:58:49;;;;;;;12.13;5.40;;;28.60;99.90;;;;;;4110977;28;20092;-67
2022/05/26 10:00:56;;;;;;;11.02;5.07;;;28.70;99.90;;;;;;4157011;28;20042;-69
2022/05/26 10:03:23;;;;;;;11.60;4.90;;;28.70;99.90;;;;;;4141656;28;20038;-67
2022/05/26 10:05:45;;;;;;;9.43;4.63;;;28.60;99.90;;;;;;4141135;28;20192;-67
2022/05/26 10:08:11;;;;;;;11.98;5.07;;;28.60;99.90;;;;;;4124882;28;20087;-67
2022/05/26 10:10:47;;;;;;;12.18;4.97;;;28.70;99.90;;;;;;4126510;28;20081;-66
2022/05/26 10:13:17;;;;;;;12.48;5.05;;;28.70;99.90;;;;;;4157190;28;20507;-68
2022/05/26 10:15:25;;;;;;;8.60;4.43;;;28.70;99.90;;;;;;4157698;28;20052;-68
2022/05/26 10:17:56;;;;;;;12.23;5.07;;;28.70;99.90;;;;;;4156607;28;20064;-67
2022/05/26 10:20:22;;;;;;;13.48;5.22;;;28.60;99.90;;;;;;4161394;28;20077;-67
2022/05/26 10:22:35;;;;;;;9.70;5.50;;;28.60;99.90;;;;;;4161732;28;20053;-66
2022/05/26 10:25:04;;;;;;;14.65;6.75;;;28.60;99.90;;;;;;4161862;28;20050;-67
2022/05/26 10:27:28;;;;;;;12.50;6.50;;;28.50;99.90;;;;;;4161169;28;20046;-67
2022/05/26 10:29:36;;;;;;;12.52;5.78;;;28.50;99.90;;;;;;4157342;28;20037;-67
2022/05/26 10:32:05;;;;;;;8.35;5.57;;;28.40;99.90;;;;;;4158938;28;20049;-68
2022/05/26 10:34:18;;;;;;;8.18;4.47;;;28.40;99.90;;;;;;4159461;28;20057;-68
2022/05/26 10:36:29;;;;;;;8.80;5.03;;;28.50;99.90;;;;;;4157573;28;20138;-67
2022/05/26 10:38:51;;;;;;;10.68;4.63;;;28.50;99.90;;;;;;4142107;28;20041;-68
2022/05/26 10:41:20;;;;;;;10.95;6.97;;;28.50;99.90;;;;;;4150766;28;20055;-68
2022/05/26 10:43:37;;;;;;;12.00;6.50;;;28.50;99.90;;;;;;4172067;28;20045;-67
2022/05/26 10:45:51;;;;;;;13.70;7.88;;;28.50;99.90;;;;;;4157733;28;20065;-68
2022/05/26 10:48:14;;;;;;;14.18;8.40;;;28.50;99.90;;;;;;4157944;28;20044;-68
2022/05/26 10:50:34;;;;;;;20.33;13.70;;;28.50;99.90;;;;;;4172768;28;20504;-67
2022/05/26 10:52:43;;;;;;;14.10;10.13;;;28.50;99.90;;;;;;4173064;28;20041;-67
2022/05/26 10:55:00;;;;;;;14.60;9.98;;;28.50;99.90;;;;;;4168096;28;20049;-67
2022/05/26 10:57:19;;;;;;;14.40;8.40;;;28.50;99.90;;;;;;4158981;28;20546;-67
2022/05/26 10:59:36;;;;;;;16.77;10.43;;;28.40;99.90;;;;;;4165221;28;20045;-67
2022/05/26 11:01:43;;;;;;;11.43;6.60;;;28.40;99.90;;;;;;4159587;28;20076;-67
2022/05/26 11:03:52;;;;;;;11.82;5.53;;;28.40;99.90;;;;;;4155953;28;20049;-68
2022/05/26 11:06:09;;;;;;;7.32;4.78;;;28.50;99.90;;;;;;4159116;28;20052;-67
2022/05/26 11:08:34;;;;;;;11.15;4.88;;;28.40;99.90;;;;;;4143272;28;20077;-67
2022/05/26 11:10:42;;;;;;;11.27;5.07;;;28.40;99.90;;;;;;4159644;28;20045;-66
2022/05/26 11:13:07;;;;;;;9.15;4.68;;;28.40;99.90;;;;;;4165280;28;20174;-67
2022/05/26 11:18:00;;;;;;;7.85;4.53;;;28.40;99.90;;;;;;4173695;28;20407;-67
2022/05/26 11:20:14;;;;;;;10.35;7.45;;;28.40;99.90;;;;;;4142001;28;20038;-69
2022/05/26 11:22:22;;;;;;;9.48;6.10;;;28.40;99.90;;;;;;4143307;28;20057;-67
2022/05/26 11:24:29;;;;;;;9.02;5.28;;;28.40;99.90;;;;;;4158278;28;20041;-68
2022/05/26 11:26:33;;;;;;;9.75;5.03;;;28.40;99.90;;;;;;4171836;28;20064;-67
2022/05/26 11:28:42;;;;;;;8.30;4.68;;;28.40;99.90;;;;;;4160611;28;20508;-67
2022/05/26 11:38:17;;;;;;;8.38;4.90;;;28.40;99.90;;;;;;4158138;28;20058;-69
2022/05/26 11:40:32;;;;;;;11.10;4.80;;;28.30;99.90;;;;;;4171739;28;20083;-69
2022/05/26 11:42:47;;;;;;;10.60;5.20;;;28.40;99.90;;;;;;4159812;28;20048;-68
2022/05/26 11:45:08;;;;;;;10.13;4.88;;;28.30;99.90;;;;;;4163307;28;20048;-69
2022/05/26 11:47:22;;;;;;;11.40;4.47;;;28.20;99.90;;;;;;4146750;28;20145;-67
2022/05/26 11:49:43;;;;;;;9.65;4.80;;;28.20;99.90;;;;;;4162683;28;20054;-68
2022/05/26 11:51:49;;;;;;;8.65;4.80;;;28.20;99.90;;;;;;4160786;28;20096;-67
2022/05/26 11:53:54;;;;;;;8.85;4.63;;;28.20;99.90;;;;;;4161255;28;20506;-67
2022/05/26 11:56:18;;;;;;;9.80;5.20;;;28.10;99.90;;;;;;4163219;28;20049;-67
2022/05/26 11:58:29;;;;;;;11.02;5.60;;;28.20;99.90;;;;;;4161109;28;20046;-66
2022/05/26 12:00:34;;;;;;;9.48;4.78;;;28.20;99.90;;;;;;4153629;28;20084;-67